createdAt,value
2023-04-02T00:01:39.263Z,98.63
2023-04-02T00:04:26.011Z,98.58
2023-04-02T00:06:55.882Z,98.73
2023-04-02T00:09:28.630Z,98.67
2023-04-02T00:11:55.441Z,98.68
2023-04-02T00:14:45.341Z,99.02
2023-04-02T00:17:12.000Z,98.62
2023-04-02T00:19:43.819Z,98.16
2023-04-02T00:22:20.189Z,97.83
2023-04-02T00:24:50.681Z,96.99
2023-04-02T00:27:17.076Z,97.50
2023-04-02T00:29:51.817Z,97.79
2023-04-02T00:32:30.976Z,99.00
2023-04-02T00:34:58.803Z,98.98
2023-04-02T00:37:28.494Z,99.60
2023-04-02T00:40:01.548Z,99.77
2023-04-02T00:42:30.614Z,99.74
2023-04-02T00:44:57.785Z,100.00
2023-04-02T00:47:42.802Z,100.00
2023-04-02T00:50:12.138Z,100.00
2023-04-02T00:52:41.445Z,100.00
2023-04-02T00:55:15.678Z,100.00
2023-04-02T00:57:42.864Z,100.00
2023-04-02T01:00:31.838Z,100.00
2023-04-02T01:03:27.294Z,100.00
2023-04-02T01:06:16.916Z,100.00
2023-04-02T01:09:05.312Z,100.00
2023-04-02T01:11:54.652Z,100.00
2023-04-02T01:14:39.418Z,100.00
2023-04-02T01:17:17.909Z,100.00
2023-04-02T01:20:00.926Z,99.66
2023-04-02T01:22:35.532Z,99.39
2023-04-02T01:25:03.677Z,99.63
2023-04-02T01:27:39.112Z,99.15
2023-04-02T01:30:07.331Z,98.66
2023-04-02T01:32:34.432Z,98.67
2023-04-02T01:35:00.934Z,98.59
2023-04-02T01:37:41.203Z,97.67
2023-04-02T01:40:26.305Z,98.07
2023-04-02T01:43:13.998Z,97.52
2023-04-02T01:45:40.449Z,97.52
2023-04-02T01:48:33.110Z,97.15
2023-04-02T01:51:00.203Z,96.92
2023-04-02T01:53:29.343Z,96.61
2023-04-02T01:56:01.407Z,96.82
2023-04-02T01:58:31.436Z,96.56
2023-04-02T02:01:14.873Z,96.58
2023-04-02T02:03:43.496Z,96.40
2023-04-02T02:06:14.837Z,95.85
2023-04-02T02:08:47.714Z,95.25
2023-04-02T02:11:17.045Z,95.65
2023-04-02T02:13:57.355Z,95.68
2023-04-02T02:16:25.652Z,95.41
2023-04-02T02:18:55.198Z,95.30
2023-04-02T02:21:26.280Z,95.01
2023-04-02T02:23:52.686Z,94.73
2023-04-02T02:26:20.129Z,94.32
2023-04-02T02:28:50.789Z,94.53
2023-04-02T02:31:21.815Z,94.08
2023-04-02T02:33:55.269Z,93.28
2023-04-02T02:36:31.524Z,93.94
2023-04-02T02:39:01.284Z,93.29
2023-04-02T02:41:30.601Z,93.05
2023-04-02T02:44:19.346Z,92.80
2023-04-02T02:46:58.692Z,92.51
2023-04-02T02:49:32.798Z,92.09
2023-04-02T02:52:14.711Z,91.93
2023-04-02T02:54:46.209Z,92.47
2023-04-02T02:57:18.993Z,91.73
2023-04-02T02:59:46.061Z,91.78
2023-04-02T03:02:14.756Z,91.30
2023-04-02T03:04:41.295Z,90.92
2023-04-02T03:07:08.548Z,91.21
2023-04-02T03:09:53.644Z,90.68
2023-04-02T03:12:38.547Z,91.23
2023-04-02T03:15:22.347Z,90.52
2023-04-02T03:18:00.481Z,89.87
2023-04-02T03:20:39.670Z,90.16
2023-04-02T03:23:29.554Z,90.68
2023-04-02T03:26:07.125Z,90.13
2023-04-02T03:28:39.007Z,90.17
2023-04-02T03:31:23.223Z,89.88
2023-04-02T03:33:59.344Z,89.72
2023-04-02T03:36:34.710Z,90.30
2023-04-02T03:39:11.467Z,91.40
2023-04-02T03:41:50.877Z,90.74
2023-04-02T03:44:25.891Z,90.29
2023-04-02T03:47:05.285Z,90.43
2023-04-02T03:49:43.713Z,90.11
2023-04-02T03:52:13.495Z,90.17
2023-04-02T03:54:53.776Z,90.17
2023-04-02T03:57:36.069Z,90.55
2023-04-02T04:00:14.685Z,91.24
2023-04-02T04:02:46.244Z,90.82
2023-04-02T04:05:21.258Z,90.62
2023-04-02T04:07:52.005Z,90.91
2023-04-02T04:10:23.463Z,91.21
2023-04-02T04:12:52.514Z,90.98
2023-04-02T04:15:30.814Z,90.17
2023-04-02T04:18:20.789Z,90.47
2023-04-02T04:20:55.953Z,90.76
2023-04-02T04:23:46.954Z,90.27
2023-04-02T04:26:25.848Z,90.04
2023-04-02T04:29:01.784Z,90.07
2023-04-02T04:31:49.021Z,89.50
2023-04-02T04:34:42.295Z,89.66
2023-04-02T04:37:18.546Z,89.21
2023-04-02T04:39:51.671Z,89.27
2023-04-02T04:42:24.445Z,88.66
2023-04-02T04:45:13.898Z,88.39
2023-04-02T04:47:49.799Z,88.22
2023-04-02T04:50:37.821Z,88.28
2023-04-02T04:53:13.010Z,87.86
2023-04-02T04:55:42.754Z,87.74
2023-04-02T04:58:22.987Z,87.68
2023-04-02T05:01:12.675Z,87.64
2023-04-02T05:03:54.823Z,87.21
2023-04-02T05:06:32.511Z,87.10
2023-04-02T05:09:07.036Z,87.14
2023-04-02T05:11:38.172Z,86.92
2023-04-02T05:14:14.285Z,86.59
2023-04-02T05:16:48.751Z,87.00
2023-04-02T05:19:30.944Z,87.03
2023-04-02T05:22:00.271Z,86.59
2023-04-02T05:24:50.764Z,86.52
2023-04-02T05:27:33.690Z,86.18
2023-04-02T05:30:35.950Z,86.53
2023-04-02T05:33:05.785Z,85.89
2023-04-02T05:35:36.152Z,85.88
2023-04-02T05:38:03.141Z,86.04
2023-04-02T05:40:43.798Z,85.61
2023-04-02T05:43:15.361Z,85.32
2023-04-02T05:45:45.776Z,85.23
2023-04-02T05:48:18.475Z,84.70
2023-04-02T05:50:50.414Z,85.01
2023-04-02T05:53:19.719Z,85.16
2023-04-02T05:55:49.047Z,84.96
2023-04-02T05:58:36.570Z,85.10
2023-04-02T06:01:51.335Z,85.20
2023-04-02T06:04:40.924Z,83.80
2023-04-02T06:07:13.204Z,83.76
2023-04-02T06:09:46.416Z,84.30
2023-04-02T06:12:28.709Z,84.05
2023-04-02T06:14:55.153Z,83.74
2023-04-02T06:17:22.137Z,83.68
2023-04-02T06:19:49.092Z,82.82
2023-04-02T06:22:24.518Z,82.04
2023-04-02T06:25:01.462Z,82.48
2023-04-02T06:27:28.389Z,82.77
2023-04-02T06:30:00.784Z,82.79
2023-04-02T06:32:27.226Z,82.04
2023-04-02T06:34:53.800Z,82.14
2023-04-02T06:37:29.732Z,81.50
2023-04-02T06:39:58.555Z,81.86
2023-04-02T06:42:38.668Z,81.38
2023-04-02T06:45:05.672Z,81.19
2023-04-02T06:47:43.142Z,80.81
2023-04-02T06:50:16.437Z,80.48
2023-04-02T06:52:52.635Z,79.76
2023-04-02T06:55:28.892Z,80.79
2023-04-02T06:57:55.246Z,80.59
2023-04-02T07:00:25.125Z,80.32
2023-04-02T07:02:53.522Z,80.34
2023-04-02T07:05:19.904Z,79.84
2023-04-02T07:07:46.251Z,79.84
2023-04-02T07:10:12.579Z,79.38
2023-04-02T07:12:38.977Z,80.16
2023-04-02T07:15:05.820Z,79.26
2023-04-02T07:17:32.149Z,79.72
2023-04-02T07:19:58.515Z,79.72
2023-04-02T07:22:24.867Z,78.48
2023-04-02T07:24:51.225Z,77.11
2023-04-02T07:27:17.537Z,76.10
2023-04-02T07:29:43.876Z,75.99
2023-04-02T07:32:12.111Z,75.31
2023-04-02T07:34:39.595Z,73.98
2023-04-02T07:37:06.128Z,73.54
2023-04-02T07:39:34.836Z,73.00
2023-04-02T07:42:02.474Z,73.39
2023-04-02T07:44:29.251Z,73.72
2023-04-02T07:46:55.708Z,72.68
2023-04-02T07:49:22.190Z,72.15
2023-04-02T07:51:48.646Z,74.11
2023-04-02T07:54:14.937Z,73.23
2023-04-02T07:56:41.263Z,73.03
2023-04-02T07:59:07.622Z,72.32
2023-04-02T08:01:33.917Z,72.36
2023-04-02T08:04:00.951Z,72.27
2023-04-02T08:06:27.772Z,71.19
2023-04-02T08:08:54.261Z,70.96
2023-04-02T08:11:20.604Z,71.33
2023-04-02T08:13:47.305Z,71.79
2023-04-02T08:16:13.789Z,72.12
2023-04-02T08:18:40.541Z,71.56
2023-04-02T08:21:09.704Z,72.12
2023-04-02T08:23:36.700Z,72.08
2023-04-02T08:26:04.257Z,71.98
2023-04-02T08:28:30.602Z,72.05
2023-04-02T08:30:58.902Z,72.21
2023-04-02T08:33:25.524Z,71.00
2023-04-02T08:35:52.001Z,70.85
2023-04-02T08:38:20.645Z,70.62
2023-04-02T08:40:53.683Z,69.39
2023-04-02T08:43:39.015Z,69.22
2023-04-02T08:46:18.467Z,69.68
2023-04-02T08:48:51.029Z,70.46
2023-04-02T08:51:30.444Z,70.20
2023-04-02T08:54:23.778Z,69.59
2023-04-02T08:56:57.862Z,67.42
2023-04-02T08:59:39.952Z,66.90
2023-04-02T09:02:19.168Z,67.75
2023-04-02T09:04:45.577Z,67.82
2023-04-02T09:07:13.749Z,67.28
2023-04-02T09:09:40.300Z,67.58
2023-04-02T09:12:15.354Z,67.19
2023-04-02T09:14:53.507Z,67.39
2023-04-02T09:17:22.849Z,66.06
2023-04-02T09:19:57.662Z,65.67
2023-04-02T09:22:25.887Z,65.78
2023-04-02T09:24:57.540Z,65.08
2023-04-02T09:27:35.493Z,65.12
2023-04-02T09:30:10.963Z,66.96
2023-04-02T09:32:46.768Z,66.43
2023-04-02T09:35:26.047Z,67.06
2023-04-02T09:38:20.395Z,66.17
2023-04-02T09:40:49.396Z,65.66
2023-04-02T09:43:18.422Z,66.21
2023-04-02T09:45:55.496Z,66.32
2023-04-02T09:48:24.090Z,65.99
2023-04-02T09:50:50.408Z,65.43
2023-04-02T09:53:31.017Z,66.61
2023-04-02T09:56:13.839Z,66.18
2023-04-02T09:58:42.776Z,67.07
2023-04-02T10:01:27.537Z,64.11
2023-04-02T10:03:54.170Z,63.40
2023-04-02T10:06:20.552Z,63.57
2023-04-02T10:08:46.928Z,65.05
2023-04-02T10:11:17.042Z,64.22
2023-04-02T10:13:49.222Z,65.68
2023-04-02T10:16:30.795Z,64.27
2023-04-02T10:19:10.228Z,64.38
2023-04-02T10:21:39.880Z,65.66
2023-04-02T10:24:13.983Z,64.82
2023-04-02T10:27:01.363Z,65.21
2023-04-02T10:29:30.565Z,64.14
2023-04-02T10:32:30.290Z,64.80
2023-04-02T10:35:01.451Z,64.09
2023-04-02T10:37:43.649Z,63.90
2023-04-02T10:40:18.594Z,64.48
2023-04-02T10:42:56.041Z,62.19
2023-04-02T10:45:49.425Z,62.71
2023-04-02T10:48:24.288Z,62.97
2023-04-02T10:50:50.506Z,61.53
2023-04-02T10:53:19.116Z,62.86
2023-04-02T10:55:53.853Z,65.65
2023-04-02T10:58:25.909Z,62.70
2023-04-02T11:00:59.292Z,62.35
2023-04-02T11:03:48.506Z,62.38
2023-04-02T11:06:21.583Z,62.66
2023-04-02T11:08:50.464Z,62.04
2023-04-02T11:11:24.386Z,61.06
2023-04-02T11:14:29.290Z,60.69
2023-04-02T11:16:58.369Z,60.37
2023-04-02T11:19:28.448Z,61.03
2023-04-02T11:22:00.488Z,61.79
2023-04-02T11:24:31.094Z,60.85
2023-04-02T11:27:06.365Z,59.58
2023-04-02T11:29:33.841Z,61.09
2023-04-02T11:32:15.168Z,63.16
2023-04-02T11:34:41.508Z,62.99
2023-04-02T11:37:28.137Z,64.35
2023-04-02T11:39:56.547Z,64.50
2023-04-02T11:42:26.121Z,62.84
2023-04-02T11:44:53.792Z,63.52
2023-04-02T11:47:28.452Z,61.43
2023-04-02T11:49:55.034Z,62.04
2023-04-02T11:52:51.928Z,61.61
2023-04-02T11:55:24.193Z,61.48
2023-04-02T11:58:19.945Z,62.23
2023-04-02T12:01:23.257Z,61.74
2023-04-02T12:04:26.775Z,59.68
2023-04-02T12:07:20.382Z,60.35
2023-04-02T12:09:50.799Z,62.77
2023-04-02T12:12:28.736Z,63.67
2023-04-02T12:14:56.863Z,61.88
2023-04-02T12:17:40.173Z,62.59
2023-04-02T12:20:06.464Z,61.97
2023-04-02T12:22:34.292Z,60.20
2023-04-02T12:25:16.858Z,60.57
2023-04-02T12:27:43.450Z,61.60
2023-04-02T12:30:22.082Z,62.19
2023-04-02T12:32:49.389Z,61.66
2023-04-02T12:35:35.523Z,61.70
2023-04-02T12:38:01.948Z,61.52
2023-04-02T12:40:28.637Z,62.94
2023-04-02T12:42:54.951Z,60.99
2023-04-02T12:45:29.560Z,61.38
2023-04-02T12:47:57.638Z,60.78
2023-04-02T12:50:24.217Z,61.55
2023-04-02T12:52:52.328Z,61.67
2023-04-02T12:55:24.882Z,59.51
2023-04-02T12:57:58.550Z,58.95
2023-04-02T13:00:24.798Z,58.09
2023-04-02T13:03:00.730Z,57.38
2023-04-02T13:05:40.077Z,56.35
2023-04-02T13:08:14.851Z,57.46
2023-04-02T13:10:43.049Z,57.52
2023-04-02T13:13:20.467Z,57.06
2023-04-02T13:16:00.839Z,58.96
2023-04-02T13:18:29.218Z,57.72
2023-04-02T13:21:00.556Z,57.41
2023-04-02T13:23:29.902Z,57.29
2023-04-02T13:25:58.533Z,57.34
2023-04-02T13:28:25.308Z,54.84
2023-04-02T13:30:51.617Z,54.06
2023-04-02T13:33:18.237Z,53.95
2023-04-02T13:35:44.921Z,55.16
2023-04-02T13:38:11.229Z,54.14
2023-04-02T13:40:38.349Z,55.08
2023-04-02T13:43:06.348Z,56.04
2023-04-02T13:45:40.118Z,56.60
2023-04-02T13:48:06.521Z,56.80
2023-04-02T13:50:34.878Z,55.99
2023-04-02T13:53:08.372Z,55.11
2023-04-02T13:55:41.626Z,56.43
2023-04-02T13:58:08.387Z,56.06
2023-04-02T14:00:37.302Z,57.07
2023-04-02T14:03:10.831Z,57.89
2023-04-02T14:05:49.852Z,56.94
2023-04-02T14:08:53.797Z,55.93
2023-04-02T14:11:35.850Z,56.26
2023-04-02T14:14:23.201Z,55.21
2023-04-02T14:17:35.994Z,55.20
2023-04-02T14:20:14.563Z,55.56
2023-04-02T14:23:18.165Z,53.60
2023-04-02T14:26:09.380Z,55.06
2023-04-02T14:28:57.890Z,55.07
2023-04-02T14:31:54.725Z,54.33
2023-04-02T14:34:42.718Z,55.23
2023-04-02T14:37:24.415Z,54.90
2023-04-02T14:40:06.144Z,53.04
2023-04-02T14:42:47.099Z,52.11
2023-04-02T14:45:42.453Z,52.17
2023-04-02T14:48:23.571Z,52.09
2023-04-02T14:50:53.517Z,51.46
2023-04-02T14:53:27.738Z,51.44
2023-04-02T14:55:59.343Z,53.32
2023-04-02T14:58:31.754Z,53.61
2023-04-02T15:01:20.004Z,53.42
2023-04-02T15:04:18.514Z,53.32
2023-04-02T15:06:49.857Z,53.91
2023-04-02T15:09:26.827Z,53.70
2023-04-02T15:11:59.656Z,53.66
2023-04-02T15:14:35.005Z,53.75
2023-04-02T15:17:01.451Z,54.52
2023-04-02T15:19:27.752Z,55.11
2023-04-02T15:22:25.272Z,54.54
2023-04-02T15:25:10.470Z,52.66
2023-04-02T15:27:46.393Z,51.96
2023-04-02T15:30:17.971Z,51.54
2023-04-02T15:32:45.657Z,52.06
2023-04-02T15:35:27.012Z,53.44
2023-04-02T15:38:13.287Z,52.62
2023-04-02T15:41:08.768Z,53.86
2023-04-02T15:43:43.810Z,53.30
2023-04-02T15:46:31.245Z,52.12
2023-04-02T15:49:08.637Z,52.09
2023-04-02T15:51:56.348Z,51.77
2023-04-02T15:54:30.379Z,52.50
2023-04-02T15:57:15.884Z,53.00
2023-04-02T16:00:10.254Z,52.68
2023-04-02T16:03:00.341Z,52.86
2023-04-02T16:05:36.228Z,53.15
2023-04-02T16:08:19.864Z,54.15
2023-04-02T16:10:46.356Z,53.03
2023-04-02T16:13:34.079Z,53.61
2023-04-02T16:16:26.077Z,53.44
2023-04-02T16:18:59.108Z,53.82
2023-04-02T16:21:31.642Z,52.95
2023-04-02T16:23:58.105Z,52.90
2023-04-02T16:26:43.197Z,52.60
2023-04-02T16:29:12.196Z,52.81
2023-04-02T16:32:03.723Z,53.36
2023-04-02T16:34:49.500Z,53.31
2023-04-02T16:37:42.489Z,53.67
2023-04-02T16:40:23.203Z,53.15
2023-04-02T16:43:17.242Z,52.56
2023-04-02T16:45:57.513Z,52.36
2023-04-02T16:48:32.940Z,52.40
2023-04-02T16:51:20.533Z,52.32
2023-04-02T16:54:00.339Z,52.60
2023-04-02T16:56:27.600Z,52.85
2023-04-02T16:59:13.347Z,53.74
2023-04-02T17:02:02.346Z,54.17
2023-04-02T17:04:58.792Z,54.18
2023-04-02T17:07:31.119Z,54.79
2023-04-02T17:10:11.797Z,54.26
2023-04-02T17:13:01.282Z,54.43
2023-04-02T17:15:33.112Z,54.99
2023-04-02T17:18:01.807Z,54.98
2023-04-02T17:20:28.413Z,54.84
2023-04-02T17:22:55.952Z,55.07
2023-04-02T17:25:33.914Z,55.02
2023-04-02T17:28:01.866Z,55.31
2023-04-02T17:30:41.290Z,55.27
2023-04-02T17:33:13.421Z,55.71
2023-04-02T17:35:53.842Z,55.71
2023-04-02T17:38:31.066Z,56.10
2023-04-02T17:41:21.785Z,55.69
2023-04-02T17:44:01.372Z,56.33
2023-04-02T17:46:55.121Z,56.61
2023-04-02T17:49:32.084Z,56.03
2023-04-02T17:52:19.369Z,56.69
2023-04-02T17:55:18.432Z,56.11
2023-04-02T17:57:50.859Z,56.50
2023-04-02T18:00:52.409Z,56.72
2023-04-02T18:03:43.493Z,56.73
2023-04-02T18:06:36.689Z,56.53
2023-04-02T18:09:20.926Z,56.47
2023-04-02T18:12:13.831Z,56.51
2023-04-02T18:14:58.257Z,57.34
2023-04-02T18:17:37.106Z,56.96
2023-04-02T18:20:30.019Z,56.35
2023-04-02T18:23:11.823Z,57.23
2023-04-02T18:25:38.104Z,57.54
2023-04-02T18:28:15.688Z,57.84
2023-04-02T18:31:12.259Z,57.77
2023-04-02T18:34:10.807Z,57.55
2023-04-02T18:36:46.144Z,58.03
2023-04-02T18:39:44.975Z,57.50
2023-04-02T18:42:42.831Z,58.08
2023-04-02T18:45:21.821Z,57.52
2023-04-02T18:48:00.379Z,57.77
2023-04-02T18:50:36.447Z,57.52
2023-04-02T18:53:16.481Z,57.41
2023-04-02T18:55:50.319Z,58.09
2023-04-02T18:58:29.646Z,58.10
2023-04-02T19:00:58.235Z,58.27
2023-04-02T19:03:30.622Z,58.46
2023-04-02T19:06:02.662Z,58.19
2023-04-02T19:08:35.641Z,58.01
2023-04-02T19:11:08.821Z,58.54
2023-04-02T19:13:35.168Z,58.56
2023-04-02T19:16:23.037Z,58.02
2023-04-02T19:19:01.466Z,58.22
2023-04-02T19:21:58.880Z,58.46
2023-04-02T19:24:49.585Z,58.13
2023-04-02T19:27:39.898Z,58.56
2023-04-02T19:30:06.156Z,57.88
2023-04-02T19:32:53.872Z,58.63
2023-04-02T19:35:26.349Z,58.38
2023-04-02T19:38:10.728Z,58.28
2023-04-02T19:40:54.323Z,58.62
2023-04-02T19:43:20.694Z,58.17
2023-04-02T19:45:48.261Z,58.56
2023-04-02T19:48:21.618Z,59.08
2023-04-02T19:50:49.028Z,58.66
2023-04-02T19:53:16.157Z,59.22
2023-04-02T19:55:43.275Z,59.58
2023-04-02T19:58:30.332Z,59.99
2023-04-02T20:00:57.157Z,60.47
2023-04-02T20:03:23.953Z,60.94
2023-04-02T20:05:50.912Z,61.43
2023-04-02T20:08:17.344Z,62.07
2023-04-02T20:10:44.350Z,62.65
2023-04-02T20:13:10.704Z,62.74
2023-04-02T20:15:39.085Z,62.55
2023-04-02T20:18:05.666Z,62.85
2023-04-02T20:20:32.013Z,63.14
2023-04-02T20:22:58.531Z,63.31
2023-04-02T20:25:24.825Z,62.88
2023-04-02T20:27:51.133Z,62.46
2023-04-02T20:30:17.624Z,62.61
2023-04-02T20:32:44.051Z,63.29
2023-04-02T20:35:10.447Z,63.17
2023-04-02T20:37:36.802Z,63.84
2023-04-02T20:40:03.324Z,63.69
2023-04-02T20:42:29.683Z,64.04
2023-04-02T20:44:56.104Z,63.63
2023-04-02T20:47:22.424Z,64.37
2023-04-02T20:49:48.728Z,64.67
2023-04-02T20:52:15.071Z,64.62
2023-04-02T20:54:41.378Z,64.55
2023-04-02T20:57:07.765Z,63.83
2023-04-02T20:59:34.139Z,63.58
2023-04-02T21:02:00.462Z,63.78
2023-04-02T21:04:27.796Z,64.08
2023-04-02T21:06:54.224Z,64.44
2023-04-02T21:09:20.525Z,64.33
2023-04-02T21:11:46.830Z,64.07
2023-04-02T21:14:13.160Z,64.57
2023-04-02T21:16:40.260Z,64.63
2023-04-02T21:19:08.552Z,64.74
2023-04-02T21:21:37.083Z,64.76
2023-04-02T21:24:05.696Z,64.70
2023-04-02T21:26:37.888Z,64.68
2023-04-02T21:29:05.270Z,64.98
2023-04-02T21:31:36.077Z,65.24
2023-04-02T21:34:02.874Z,65.47
2023-04-02T21:36:31.768Z,66.24
2023-04-02T21:39:03.972Z,66.01
2023-04-02T21:41:35.277Z,65.72
2023-04-02T21:44:03.401Z,65.62
2023-04-02T21:46:33.247Z,65.67
2023-04-02T21:49:00.130Z,65.75
2023-04-02T21:51:29.329Z,65.38
2023-04-02T21:53:56.009Z,65.99
2023-04-02T21:56:27.791Z,66.21
2023-04-02T21:58:55.521Z,66.09
2023-04-02T22:01:27.342Z,66.12
2023-04-02T22:03:59.866Z,66.16
2023-04-02T22:06:28.822Z,65.88
2023-04-02T22:08:58.400Z,65.94
2023-04-02T22:11:30.367Z,66.10
2023-04-02T22:13:56.978Z,66.01
2023-04-02T22:16:25.424Z,65.86
2023-04-02T22:18:53.178Z,66.39
2023-04-02T22:21:20.046Z,66.25
2023-04-02T22:23:47.842Z,66.53
2023-04-02T22:26:16.583Z,67.04
2023-04-02T22:28:43.279Z,66.90
2023-04-02T22:31:16.244Z,67.32
2023-04-02T22:33:44.395Z,67.10
2023-04-02T22:36:12.062Z,66.84
2023-04-02T22:38:38.489Z,66.70
2023-04-02T22:41:12.099Z,66.86
2023-04-02T22:43:39.203Z,66.66
2023-04-02T22:46:08.016Z,66.51
2023-04-02T22:48:35.183Z,67.06
2023-04-02T22:51:02.375Z,67.30
2023-04-02T22:53:28.822Z,67.29
2023-04-02T22:55:55.155Z,67.22
2023-04-02T22:58:21.482Z,67.24
2023-04-02T23:00:48.434Z,67.58
2023-04-02T23:03:14.771Z,67.57
2023-04-02T23:05:41.096Z,67.50
2023-04-02T23:08:07.410Z,67.78
2023-04-02T23:10:33.796Z,67.49
2023-04-02T23:13:00.156Z,67.79
2023-04-02T23:15:26.477Z,67.93
2023-04-02T23:17:52.886Z,67.76
2023-04-02T23:20:19.295Z,68.11
2023-04-02T23:22:45.619Z,67.40
2023-04-02T23:25:11.938Z,67.82
2023-04-02T23:27:38.257Z,67.90
2023-04-02T23:30:05.313Z,68.23
2023-04-02T23:32:31.678Z,68.07
2023-04-02T23:34:57.990Z,68.41
2023-04-02T23:37:24.349Z,68.50
2023-04-02T23:39:50.660Z,69.50
2023-04-02T23:42:16.957Z,69.79
2023-04-02T23:44:43.262Z,69.80
2023-04-02T23:47:09.720Z,70.01
2023-04-02T23:49:36.082Z,70.36
2023-04-02T23:52:02.370Z,71.09
2023-04-02T23:54:28.713Z,71.32
2023-04-02T23:56:55.088Z,71.38
2023-04-02T23:59:21.465Z,71.14
